Time;durP1;ratioP1;P1;durP2;ratioP2;P2;SDS_P1;SDS_P2;PMS_P1;PMS_P2;Temp;Humidity;BMP_temperature;BMP_pressure;BME280_temperature;BME280_humidity;BME280_pressure;Samples;Min_cycle;Max_cycle;Signal;HPM_P1;HPM_P2
2021/07/13 00:01:37;;;;;;;12.63;11.43;;;;;;;22.61;61.11;101094.81;4980999;28;20472;-74
2021/07/13 00:04:03;;;;;;;13.80;12.50;;;;;;;22.61;61.18;101101.84;4964752;28;20042;-72
2021/07/13 00:06:28;;;;;;;13.15;11.85;;;;;;;22.61;61.24;101093.94;5014946;28;20045;-72
2021/07/13 00:08:53;;;;;;;12.15;10.95;;;;;;;22.61;61.14;101096.59;4996491;28;20065;-71
2021/07/13 00:11:19;;;;;;;12.68;11.32;;;;;;;22.58;61.27;101080.84;5014783;28;20061;-71
2021/07/13 00:13:45;;;;;;;13.45;12.05;;;;;;;22.59;61.10;101083.44;4980667;28;20412;-71
2021/07/13 00:16:12;;;;;;;11.60;10.50;;;;;;;22.60;61.08;101090.44;4996972;28;20100;-72
2021/07/13 00:18:38;;;;;;;14.15;12.65;;;;;;;22.61;61.21;101086.91;5014317;28;20049;-71
2021/07/13 00:21:06;;;;;;;11.80;10.60;;;;;;;22.61;61.03;101091.31;4996678;28;20368;-71
2021/07/13 00:23:32;;;;;;;12.27;11.20;;;;;;;22.56;61.25;101085.28;4996631;28;20068;-71
2021/07/13 00:25:58;;;;;;;11.70;10.57;;;;;;;22.59;61.01;101096.59;5014301;28;20022;-71
2021/07/13 00:28:23;;;;;;;12.30;11.00;;;;;;;22.61;61.11;101096.59;4996634;28;20021;-71
2021/07/13 00:30:49;;;;;;;12.23;11.02;;;;;;;22.58;61.27;101092.25;5014412;28;20033;-71
2021/07/13 00:33:15;;;;;;;12.48;10.93;;;;;;;22.61;61.07;101101.84;4980396;28;20045;-71
2021/07/13 00:35:40;;;;;;;12.30;11.10;;;;;;;22.59;61.17;101106.31;4980642;28;20037;-71
2021/07/13 00:38:06;;;;;;;12.15;11.00;;;;;;;22.58;61.33;101105.44;4996534;28;20057;-71
2021/07/13 00:40:31;;;;;;;12.18;10.95;;;;;;;22.60;61.26;101110.66;4996491;28;20036;-71
2021/07/13 00:42:57;;;;;;;11.98;10.77;;;;;;;22.56;61.37;101098.44;4996469;28;20483;-71
2021/07/13 00:45:23;;;;;;;12.30;11.13;;;;;;;22.58;61.33;101107.22;5013824;28;20036;-71
2021/07/13 00:47:50;;;;;;;12.00;10.88;;;;;;;22.58;61.21;101101.94;4964123;28;20387;-70
2021/07/13 00:50:17;;;;;;;12.25;10.95;;;;;;;22.58;61.26;101091.41;4996306;28;20032;-71
2021/07/13 00:52:43;;;;;;;11.93;10.82;;;;;;;22.58;61.16;101094.03;4996542;28;20391;-71
2021/07/13 00:55:09;;;;;;;12.50;11.30;;;;;;;22.55;61.26;101084.41;4996503;28;20120;-71
2021/07/13 00:57:36;;;;;;;12.30;11.05;;;;;;;22.59;61.25;101096.59;4996648;28;20051;-71
2021/07/13 01:00:07;;;;;;;11.20;10.10;;;;;;;22.57;61.14;101101.06;4996085;28;20463;-71
2021/07/13 01:02:34;;;;;;;12.57;11.40;;;;;;;22.57;61.11;101101.06;5013691;28;20036;-71
2021/07/13 01:05:01;;;;;;;11.73;10.52;;;;;;;22.59;60.97;101098.41;4964130;28;20030;-71
2021/07/13 01:07:59;;;;;;;12.65;10.82;;;;;;;22.56;61.14;101095.81;4996217;28;20100;-70
2021/07/13 01:10:31;;;;;;;11.63;10.50;;;;;;;22.59;61.06;101101.03;4988514;28;20049;-70
2021/07/13 01:13:03;;;;;;;12.07;10.85;;;;;;;22.54;61.10;101090.56;5013541;28;20109;-71
2021/07/13 01:15:33;;;;;;;12.00;10.80;;;;;;;22.59;61.16;101098.41;5013698;28;20606;-71
2021/07/13 01:18:01;;;;;;;12.50;11.20;;;;;;;22.59;61.29;101109.78;4996083;28;20029;-71
2021/07/13 01:20:41;;;;;;;11.05;9.95;;;;;;;22.59;61.12;101116.84;4998914;28;20041;-71
2021/07/13 01:23:22;;;;;;;13.23;11.93;;;;;;;22.60;61.26;101121.19;5017606;28;20050;-72
2021/07/13 01:26:05;;;;;;;11.93;10.73;;;;;;;22.60;61.05;101121.19;5018092;28;20022;-72
2021/07/13 01:28:38;;;;;;;11.68;10.57;;;;;;;22.59;61.06;101114.22;5000628;28;20495;-71
2021/07/13 01:31:07;;;;;;;11.65;10.43;;;;;;;22.59;61.24;101125.59;5017659;28;20207;-71
2021/07/13 01:33:33;;;;;;;11.75;10.55;;;;;;;22.60;61.10;101126.47;5018197;28;20034;-71
2021/07/13 01:36:10;;;;;;;13.02;11.73;;;;;;;22.59;61.19;101132.66;4983904;28;20029;-71
2021/07/13 01:38:39;;;;;;;11.48;10.30;;;;;;;22.57;61.11;101126.56;4999675;28;20064;-71
2021/07/13 01:41:09;;;;;;;11.15;10.13;;;;;;;22.58;61.17;101125.66;5017343;28;20026;-71
2021/07/13 01:43:37;;;;;;;13.25;11.85;;;;;;;22.58;61.06;101123.88;5017529;28;20022;-71
2021/07/13 01:46:03;;;;;;;13.07;11.63;;;;;;;22.58;61.13;101104.56;4999889;28;20030;-71
2021/07/13 01:48:32;;;;;;;11.77;10.65;;;;;;;22.55;61.07;101100.22;5017256;28;20033;-71
2021/07/13 01:50:58;;;;;;;12.52;11.30;;;;;;;22.57;61.07;101100.19;4999711;28;20026;-71
2021/07/13 01:53:26;;;;;;;13.88;10.23;;;;;;;22.57;61.28;101106.34;4983621;28;20429;-71
2021/07/13 01:55:53;;;;;;;12.07;10.93;;;;;;;22.56;61.13;101106.34;4999483;28;20156;-71
2021/07/13 01:58:25;;;;;;;11.30;10.15;;;;;;;22.58;61.06;101109.84;4999482;28;20467;-71
2021/07/13 02:00:52;;;;;;;12.23;11.05;;;;;;;22.55;61.02;101102.84;4999643;28;20022;-71
2021/07/13 02:03:25;;;;;;;11.00;9.98;;;;;;;22.55;61.13;101112.53;4999233;28;20026;-71
2021/07/13 02:05:53;;;;;;;13.53;11.97;;;;;;;22.55;61.09;101110.75;5017090;28;20025;-71
2021/07/13 02:08:21;;;;;;;12.82;11.52;;;;;;;22.54;61.26;101100.25;4999220;28;20384;-71
2021/07/13 02:10:47;;;;;;;11.52;10.40;;;;;;;22.56;61.08;101103.72;5016711;28;20029;-71
2021/07/13 02:13:17;;;;;;;11.52;10.43;;;;;;;22.57;61.08;101111.59;5016456;28;20029;-71
2021/07/13 02:15:43;;;;;;;12.05;10.85;;;;;;;22.56;60.99;101101.09;5016527;28;20112;-71
2021/07/13 02:18:09;;;;;;;11.52;10.43;;;;;;;22.55;61.16;101102.84;4998829;28;20116;-71
2021/07/13 02:20:35;;;;;;;11.82;10.70;;;;;;;22.58;61.00;101107.22;5016408;28;20026;-71
2021/07/13 02:23:00;;;;;;;11.65;10.45;;;;;;;22.58;61.14;101107.22;4979160;28;20047;-71
2021/07/13 02:25:26;;;;;;;11.48;10.38;;;;;;;22.55;61.08;101105.50;4995650;28;20061;-71
2021/07/13 02:28:17;;;;;;;12.10;10.88;;;;;;;22.57;61.18;101103.69;4997692;28;20041;-71
2021/07/13 02:30:47;;;;;;;11.70;10.60;;;;;;;22.57;61.06;101102.81;4991896;28;20035;-71
2021/07/13 02:33:17;;;;;;;10.73;9.65;;;;;;;22.57;61.17;101103.69;4996923;28;20030;-71
2021/07/13 02:35:49;;;;;;;11.82;10.63;;;;;;;22.56;61.07;101098.44;4998072;28;20029;-71
2021/07/13 02:38:15;;;;;;;12.10;11.00;;;;;;;22.54;61.16;101092.34;4996982;28;20480;-71
2021/07/13 02:40:41;;;;;;;12.30;11.07;;;;;;;22.56;61.17;101098.44;4996790;28;20038;-71
2021/07/13 02:43:07;;;;;;;12.02;10.82;;;;;;;22.56;61.27;101095.81;4996471;28;20108;-71
2021/07/13 02:45:34;;;;;;;11.13;10.13;;;;;;;22.54;61.00;101089.69;4996502;28;20102;-71
2021/07/13 02:48:01;;;;;;;12.38;11.18;;;;;;;22.57;61.19;101081.75;4995145;28;20125;-71
2021/07/13 02:50:28;;;;;;;12.90;11.70;;;;;;;22.57;61.13;101087.88;4996485;28;20523;-71
2021/07/13 02:52:55;;;;;;;12.45;11.15;;;;;;;22.57;61.05;101084.38;4996272;28;20030;-71
2021/07/13 02:55:22;;;;;;;11.73;10.63;;;;;;;22.54;61.15;101076.53;4996398;28;20396;-71
2021/07/13 02:57:50;;;;;;;13.07;11.73;;;;;;;22.56;61.54;101075.59;4996246;28;20030;-71
2021/07/13 03:00:19;;;;;;;11.88;10.70;;;;;;;22.56;61.19;101080.00;4996181;28;20576;-71
2021/07/13 03:02:46;;;;;;;12.07;10.68;;;;;;;22.56;61.08;101078.25;4996122;28;20026;-71
2021/07/13 03:05:20;;;;;;;11.73;10.57;;;;;;;22.57;61.19;101081.75;4995169;28;20022;-71
2021/07/13 03:07:47;;;;;;;12.07;10.77;;;;;;;22.53;61.02;101069.50;4994896;28;20022;-71
2021/07/13 03:10:13;;;;;;;11.82;10.73;;;;;;;22.56;61.03;101069.47;4994906;28;20437;-71
2021/07/13 03:12:39;;;;;;;12.15;10.95;;;;;;;22.54;61.11;101071.25;4979354;28;20117;-70
2021/07/13 03:15:06;;;;;;;13.50;10.88;;;;;;;22.54;61.11;101068.59;4994655;28;20022;-71
2021/07/13 03:17:32;;;;;;;11.98;10.77;;;;;;;22.54;61.12;101069.47;4996100;28;20042;-71
2021/07/13 03:19:58;;;;;;;10.68;9.60;;;;;;;22.56;61.00;101078.25;4994539;28;20034;-70
2021/07/13 03:22:31;;;;;;;12.30;11.10;;;;;;;22.56;60.95;101074.72;4995319;28;20027;-71
2021/07/13 03:25:02;;;;;;;11.18;9.90;;;;;;;22.55;61.04;101070.34;5015241;28;20029;-73
2021/07/13 03:27:30;;;;;;;13.02;11.77;;;;;;;22.56;61.08;101075.59;4997550;28;20041;-73
2021/07/13 03:29:57;;;;;;;11.80;10.63;;;;;;;22.56;61.02;101080.00;5015128;28;20026;-73
2021/07/13 03:32:24;;;;;;;12.20;11.00;;;;;;;22.54;61.18;101084.44;5015081;28;20427;-71
2021/07/13 03:34:50;;;;;;;12.18;10.98;;;;;;;22.52;61.11;101076.53;5015103;28;20032;-71
2021/07/13 03:37:17;;;;;;;10.70;9.60;;;;;;;22.55;61.06;101080.91;4981139;28;20493;-71
2021/07/13 03:39:43;;;;;;;12.43;11.18;;;;;;;22.55;61.08;101091.44;4997412;28;20033;-70
2021/07/13 03:42:09;;;;;;;11.65;10.55;;;;;;;22.54;61.03;101089.69;4981577;28;20113;-71
2021/07/13 03:44:34;;;;;;;12.00;10.90;;;;;;;22.53;61.16;101082.69;4981541;28;20040;-71
2021/07/13 03:47:00;;;;;;;11.73;10.63;;;;;;;22.55;61.22;101092.31;5014911;28;20436;-71
2021/07/13 03:49:27;;;;;;;11.30;10.15;;;;;;;22.54;61.01;101087.06;5014988;28;20025;-71
2021/07/13 03:51:53;;;;;;;13.02;11.25;;;;;;;22.52;61.18;101078.31;5014854;28;20109;-71
2021/07/13 03:54:20;;;;;;;11.57;10.48;;;;;;;22.52;61.11;101087.09;4997140;28;20124;-71
2021/07/13 03:56:46;;;;;;;12.25;10.95;;;;;;;22.54;61.05;101087.06;4981301;28;20037;-71
2021/07/13 03:59:12;;;;;;;11.15;10.05;;;;;;;22.53;61.10;101091.47;5014639;28;20037;-71
2021/07/13 04:01:39;;;;;;;10.98;9.88;;;;;;;22.53;61.05;101088.81;5014687;28;20048;-71
2021/07/13 04:04:04;;;;;;;11.02;9.95;;;;;;;22.55;60.97;101091.44;5015025;28;20030;-71
2021/07/13 04:06:30;;;;;;;11.45;10.32;;;;;;;22.54;60.77;101092.34;5014712;28;20033;-71
2021/07/13 04:08:56;;;;;;;12.15;10.75;;;;;;;22.55;61.01;101094.94;5015148;28;20041;-74
2021/07/13 04:11:22;;;;;;;11.98;10.77;;;;;;;22.53;60.92;101087.94;4999637;28;20076;-74
2021/07/13 04:13:47;;;;;;;12.25;11.05;;;;;;;22.54;60.87;101089.69;5015658;28;20026;-74
2021/07/13 04:16:13;;;;;;;12.13;10.98;;;;;;;22.53;60.96;101096.72;5015532;28;20057;-73
2021/07/13 04:18:38;;;;;;;11.25;10.15;;;;;;;22.54;60.94;101098.47;4981447;28;20036;-73
2021/07/13 04:21:04;;;;;;;12.10;10.88;;;;;;;22.53;60.76;101101.13;5014086;28;20030;-73
2021/07/13 04:23:31;;;;;;;11.68;10.50;;;;;;;22.56;60.88;101109.00;5014563;28;20088;-74
2021/07/13 04:25:57;;;;;;;12.30;11.00;;;;;;;22.52;61.09;101107.28;4997409;28;20427;-74
2021/07/13 04:28:22;;;;;;;12.18;10.98;;;;;;;22.51;60.92;101100.28;4981135;28;20381;-73
2021/07/13 04:30:48;;;;;;;12.15;11.00;;;;;;;22.54;61.00;101113.41;4997949;28;20061;-77
2021/07/13 04:33:13;;;;;;;15.13;13.63;;;;;;;22.53;61.11;101111.69;4982794;28;20424;-73
2021/07/13 04:35:39;;;;;;;22.05;19.40;;;;;;;22.53;61.21;101119.59;5000636;28;20108;-74
2021/07/13 04:38:05;;;;;;;16.13;14.15;;;;;;;22.51;61.24;101116.97;4983165;28;20034;-73
2021/07/13 04:40:30;;;;;;;22.23;19.63;;;;;;;22.50;61.19;101115.22;5016187;28;20380;-73
2021/07/13 04:42:55;;;;;;;18.70;16.70;;;;;;;22.49;61.34;101120.53;5016364;28;20026;-73
2021/07/13 04:45:21;;;;;;;22.02;18.73;;;;;;;22.43;61.28;101117.13;4998490;28;20128;-73
2021/07/13 04:47:47;;;;;;;22.25;19.90;;;;;;;22.47;61.44;101125.81;4965237;28;20034;-73
2021/07/13 04:50:12;;;;;;;22.73;20.38;;;;;;;22.46;61.12;101124.94;4996968;28;20030;-73
2021/07/13 04:52:38;;;;;;;24.92;22.30;;;;;;;22.42;61.65;101123.28;4980280;28;20030;-73
2021/07/13 04:55:04;;;;;;;23.83;21.33;;;;;;;22.43;61.51;101126.78;5013456;28;20040;-72
2021/07/13 04:57:30;;;;;;;26.23;23.05;;;;;;;22.26;62.24;101124.41;4996133;28;20048;-73
2021/07/13 04:59:55;;;;;;;27.30;24.25;;;;;;;21.92;63.03;101125.81;5013702;28;20030;-73
2021/07/13 05:02:21;;;;;;;29.17;26.02;;;;;;;21.75;63.74;101132.19;4980117;28;20044;-73
2021/07/13 05:04:47;;;;;;;27.63;24.65;;;;;;;21.72;63.58;101126.06;4980172;28;20476;-74
2021/07/13 05:07:12;;;;;;;30.45;24.02;;;;;;;21.69;63.91;101123.47;5013833;28;20457;-73
2021/07/13 05:09:38;;;;;;;30.88;25.35;;;;;;;21.62;63.92;101117.44;4979832;28;20070;-73
2021/07/13 05:12:04;;;;;;;28.00;25.00;;;;;;;21.50;64.33;101129.91;4996203;28;20026;-73
2021/07/13 05:14:29;;;;;;;29.55;26.42;;;;;;;21.53;64.27;101133.38;4996320;28;20030;-73
2021/07/13 05:16:55;;;;;;;29.58;24.60;;;;;;;21.62;64.00;101132.34;4996162;28;20132;-77
2021/07/13 05:19:20;;;;;;;25.58;22.75;;;;;;;21.75;63.44;101133.94;4979630;28;20376;-72
2021/07/13 05:21:54;;;;;;;28.42;24.92;;;;;;;21.82;62.94;101124.16;4979929;28;20542;-77
2021/07/13 05:24:19;;;;;;;27.40;22.23;;;;;;;21.95;62.85;101136.28;4982241;28;20436;-73
2021/07/13 05:26:45;;;;;;;39.55;25.00;;;;;;;21.60;64.17;101139.41;4979726;28;20084;-74
2021/07/13 05:29:11;;;;;;;29.63;26.47;;;;;;;21.34;65.07;101132.72;4995853;28;20476;-72
2021/07/13 05:31:37;;;;;;;32.05;28.67;;;;;;;21.11;66.53;101137.34;4980298;28;19920;-72
2021/07/13 05:34:02;;;;;;;32.63;26.08;;;;;;;20.95;66.36;101133.13;5013433;28;20026;-73
2021/07/13 05:36:28;;;;;;;32.22;28.10;;;;;;;20.94;66.45;101134.88;5013629;28;20054;-74
2021/07/13 05:38:53;;;;;;;34.38;29.38;;;;;;;20.78;66.82;101127.16;5013383;28;20469;-75
2021/07/13 05:41:21;;;;;;;29.02;25.92;;;;;;;20.76;67.23;101132.47;4963510;28;20052;-75
2021/07/13 05:43:47;;;;;;;31.17;27.60;;;;;;;20.84;66.85;101130.63;5013478;28;20384;-75
2021/07/13 05:46:12;;;;;;;32.15;26.45;;;;;;;21.08;66.11;101144.38;4979583;28;20022;-75
2021/07/13 05:48:37;;;;;;;33.38;29.65;;;;;;;20.99;66.12;101133.09;5013398;28;20049;-74
2021/07/13 05:51:03;;;;;;;32.55;26.27;;;;;;;20.86;66.60;101134.09;4995880;28;20029;-75
2021/07/13 05:53:28;;;;;;;31.85;26.73;;;;;;;20.89;66.44;101139.34;5013501;28;20427;-74
2021/07/13 05:55:54;;;;;;;33.03;29.42;;;;;;;20.91;66.56;101134.91;4995794;28;20075;-74
2021/07/13 05:58:20;;;;;;;29.57;25.33;;;;;;;20.98;66.22;101131.34;4979447;28;20121;-74
2021/07/13 06:00:47;;;;;;;30.58;25.88;;;;;;;21.00;66.27;101140.09;5013285;28;20456;-74
2021/07/13 06:03:12;;;;;;;30.88;27.17;;;;;;;21.00;66.30;101140.09;5013585;28;20034;-74
2021/07/13 06:05:38;;;;;;;33.08;28.63;;;;;;;20.98;66.36;101139.22;5014446;28;20056;-74
2021/07/13 06:08:04;;;;;;;32.28;27.55;;;;;;;21.02;65.97;101148.84;4983254;28;20087;-74
2021/07/13 06:10:29;;;;;;;32.03;27.33;;;;;;;21.02;65.94;101140.94;4999336;28;20104;-74
2021/07/13 06:12:55;;;;;;;31.35;27.35;;;;;;;21.05;66.07;101142.66;4999136;28;20041;-74
2021/07/13 06:15:20;;;;;;;37.83;29.20;;;;;;;20.98;66.49;101155.00;4982700;28;20026;-74
2021/07/13 06:17:46;;;;;;;30.10;26.38;;;;;;;21.00;66.58;101153.25;4999132;28;20124;-74
2021/07/13 06:20:12;;;;;;;30.13;27.02;;;;;;;20.96;66.92;101148.88;4999147;28;20034;-74
2021/07/13 06:22:38;;;;;;;32.00;28.38;;;;;;;21.01;66.75;101157.63;4998842;28;20396;-74
2021/07/13 06:25:04;;;;;;;32.20;27.20;;;;;;;21.07;66.79;101158.41;5016934;28;20038;-74
2021/07/13 06:27:30;;;;;;;31.50;27.92;;;;;;;21.23;66.11;101150.38;5016785;28;20118;-74
2021/07/13 06:29:55;;;;;;;31.73;27.17;;;;;;;21.35;65.55;101157.25;5016515;28;20055;-75
2021/07/13 06:32:21;;;;;;;32.15;27.23;;;;;;;21.38;65.82;101158.09;4998960;28;20038;-74
2021/07/13 06:34:46;;;;;;;26.50;23.30;;;;;;;21.40;65.64;101158.09;5016469;28;20030;-74
2021/07/13 06:37:11;;;;;;;32.42;28.50;;;;;;;21.37;65.47;101152.84;4982941;28;20361;-74
2021/07/13 06:39:37;;;;;;;34.47;28.33;;;;;;;21.33;65.80;101153.78;5000935;28;20092;-74
2021/07/13 06:42:02;;;;;;;34.20;28.88;;;;;;;21.33;65.61;101159.91;5002817;28;20060;-74
2021/07/13 06:44:28;;;;;;;32.65;27.30;;;;;;;21.39;65.44;101162.47;5000915;28;20125;-75
2021/07/13 06:46:53;;;;;;;35.05;28.35;;;;;;;21.31;65.56;101164.31;4983358;28;20038;-74
2021/07/13 06:49:18;;;;;;;33.70;26.48;;;;;;;21.29;65.63;101170.50;4999078;28;20172;-75
2021/07/13 06:51:44;;;;;;;32.15;27.08;;;;;;;21.27;65.70;101169.63;4982615;28;20045;-74
2021/07/13 06:54:09;;;;;;;30.08;24.83;;;;;;;21.40;65.30;101160.72;5016341;28;20030;-76
2021/07/13 06:56:35;;;;;;;31.55;27.85;;;;;;;21.63;64.65;101166.56;4982218;28;20038;-75
2021/07/13 06:59:00;;;;;;;27.58;24.42;;;;;;;21.77;64.10;101171.66;5015847;28;20117;-75
2021/07/13 07:01:25;;;;;;;30.90;26.00;;;;;;;21.88;63.68;101171.50;4998618;28;20033;-75
2021/07/13 07:03:50;;;;;;;35.78;28.55;;;;;;;21.91;63.52;101169.69;4998303;28;20392;-75
2021/07/13 07:06:16;;;;;;;30.80;27.17;;;;;;;21.98;63.42;101178.38;4998073;28;20503;-75
2021/07/13 07:08:42;;;;;;;29.40;26.05;;;;;;;21.98;63.39;101178.38;5016245;28;20465;-75
2021/07/13 07:11:07;;;;;;;27.10;24.27;;;;;;;22.03;63.14;101192.38;5015852;28;20041;-75
2021/07/13 07:13:32;;;;;;;31.55;24.77;;;;;;;22.04;63.17;101186.22;5015738;28;20045;-75
2021/07/13 07:15:58;;;;;;;28.23;24.80;;;;;;;22.07;63.09;101178.28;5015549;28;20042;-75
2021/07/13 07:18:23;;;;;;;32.53;29.13;;;;;;;22.06;63.00;101184.44;5014814;28;20034;-75
2021/07/13 07:20:49;;;;;;;28.17;22.67;;;;;;;22.05;62.89;101173.03;5015400;28;20432;-75
2021/07/13 07:23:14;;;;;;;29.35;26.08;;;;;;;22.13;62.81;101182.59;4997850;28;20050;-75
2021/07/13 07:25:40;;;;;;;28.20;25.23;;;;;;;22.13;62.72;101180.81;4981700;28;20100;-75
2021/07/13 07:28:05;;;;;;;28.33;25.27;;;;;;;22.13;62.77;101183.44;5015450;28;20025;-75
2021/07/13 07:30:31;;;;;;;28.88;22.92;;;;;;;22.15;62.69;101181.66;5015393;28;20030;-75
2021/07/13 07:32:58;;;;;;;29.25;26.15;;;;;;;22.18;62.58;101186.03;5015506;28;20054;-75
2021/07/13 07:35:24;;;;;;;26.20;23.40;;;;;;;22.17;62.63;101182.53;5015353;28;20026;-72
2021/07/13 07:37:49;;;;;;;23.52;21.02;;;;;;;22.20;62.64;101186.88;4997464;28;20037;-72
2021/07/13 07:40:18;;;;;;;23.50;20.95;;;;;;;22.19;62.32;101188.66;5015157;28;20453;-72
2021/07/13 07:42:45;;;;;;;24.60;22.02;;;;;;;22.20;62.37;101179.81;4997490;28;20022;-72
2021/07/13 07:45:11;;;;;;;26.13;23.47;;;;;;;22.18;62.35;101179.00;5014914;28;20029;-73
2021/07/13 07:47:36;;;;;;;22.85;20.30;;;;;;;22.20;62.44;101181.63;4997327;28;20046;-72
2021/07/13 07:50:03;;;;;;;24.77;22.13;;;;;;;22.22;62.29;101190.34;4997520;28;20064;-73
2021/07/13 07:52:29;;;;;;;25.55;22.88;;;;;;;22.22;62.38;101185.94;5014888;28;20029;-72
2021/07/13 07:54:54;;;;;;;23.98;21.45;;;;;;;22.22;62.25;101185.94;4981040;28;20026;-72
2021/07/13 07:57:19;;;;;;;22.50;19.80;;;;;;;22.22;62.16;101188.56;4981082;28;20113;-72
2021/07/13 07:59:45;;;;;;;20.83;18.25;;;;;;;22.25;62.15;101193.81;4996931;28;20030;-72
2021/07/13 08:02:10;;;;;;;22.92;20.58;;;;;;;22.22;62.21;101195.59;4997077;28;20034;-72
2021/07/13 08:04:36;;;;;;;24.67;22.17;;;;;;;22.25;62.09;101200.84;4997000;28;20038;-73
2021/07/13 08:07:01;;;;;;;25.92;20.58;;;;;;;22.25;62.17;101201.72;4980943;28;20038;-72
2021/07/13 08:09:27;;;;;;;21.80;19.63;;;;;;;22.23;62.05;101195.59;4980963;28;20026;-72
2021/07/13 08:11:53;;;;;;;25.45;22.95;;;;;;;22.26;62.05;101211.34;5014574;28;20022;-72
2021/07/13 08:14:18;;;;;;;21.02;18.92;;;;;;;22.25;62.03;101208.75;5014492;28;20033;-73
2021/07/13 08:16:45;;;;;;;24.73;22.10;;;;;;;22.25;61.94;101204.34;4980731;28;20559;-72
2021/07/13 08:19:11;;;;;;;21.70;19.45;;;;;;;22.24;61.75;101207.88;4996977;28;20061;-73
2021/07/13 08:21:36;;;;;;;23.02;20.52;;;;;;;22.24;61.83;101204.38;4996882;28;20029;-72
2021/07/13 08:24:02;;;;;;;22.88;20.48;;;;;;;22.24;61.91;101199.97;4996712;28;20050;-72
2021/07/13 08:26:27;;;;;;;23.33;21.08;;;;;;;22.26;61.86;101208.72;4996963;28;20088;-72
2021/07/13 08:28:54;;;;;;;24.08;21.50;;;;;;;22.27;61.73;101206.97;4996167;28;20025;-74
2021/07/13 08:31:20;;;;;;;22.98;20.48;;;;;;;22.27;61.65;101199.06;5014428;28;20507;-72
2021/07/13 08:33:45;;;;;;;21.17;18.98;;;;;;;22.29;61.71;101202.53;4996625;28;20061;-72
2021/07/13 08:36:10;;;;;;;24.23;21.80;;;;;;;22.26;61.71;101194.69;5014278;28;20061;-73
2021/07/13 08:38:36;;;;;;;22.02;19.40;;;;;;;22.28;61.62;101206.94;4996437;28;20033;-72
2021/07/13 08:41:02;;;;;;;23.63;20.70;;;;;;;22.29;61.56;101205.19;5013969;28;20029;-73
2021/07/13 08:43:28;;;;;;;21.67;19.48;;;;;;;22.26;61.75;101206.09;5013956;28;20088;-72
2021/07/13 08:45:54;;;;;;;22.00;19.83;;;;;;;22.28;61.49;101213.97;4980203;28;20503;-72
2021/07/13 08:48:24;;;;;;;20.92;18.83;;;;;;;22.29;61.47;101208.69;5014050;28;20547;-73
2021/07/13 08:50:57;;;;;;;22.23;19.92;;;;;;;22.27;61.57;101202.56;4980364;28;20141;-72
2021/07/13 08:53:23;;;;;;;22.25;19.98;;;;;;;22.30;61.34;101202.53;4980807;28;20030;-72
2021/07/13 08:55:48;;;;;;;23.08;20.38;;;;;;;22.30;61.53;101205.16;4980068;28;20088;-73
2021/07/13 08:58:14;;;;;;;21.80;19.50;;;;;;;22.31;61.37;101203.41;4996289;28;20037;-73
2021/07/13 09:00:41;;;;;;;21.73;19.52;;;;;;;22.32;61.40;101205.13;4996316;28;20037;-72
2021/07/13 09:03:18;;;;;;;22.23;20.02;;;;;;;22.30;61.15;101199.03;5014030;28;20427;-73
2021/07/13 09:05:48;;;;;;;22.50;20.17;;;;;;;22.32;61.34;101198.09;4996340;28;20116;-72
2021/07/13 09:08:18;;;;;;;23.10;20.70;;;;;;;22.33;61.25;101207.72;5014165;28;20029;-72
2021/07/13 09:11:13;;;;;;;21.90;19.58;;;;;;;22.33;61.20;101207.72;5013822;28;20101;-72
2021/07/13 09:13:50;;;;;;;21.05;18.85;;;;;;;22.35;61.25;101211.22;5013773;28;20369;-72
2021/07/13 09:16:18;;;;;;;20.40;18.30;;;;;;;22.36;61.22;101212.09;5013595;28;20477;-72
2021/07/13 09:18:46;;;;;;;21.05;18.95;;;;;;;22.36;61.22;101212.94;5013414;28;20045;-72
2021/07/13 09:21:18;;;;;;;23.67;21.15;;;;;;;22.36;61.14;101212.94;5013577;28;20036;-73
2021/07/13 09:24:17;;;;;;;19.42;17.40;;;;;;;22.37;61.17;101209.44;4995541;28;20519;-72
2021/07/13 09:26:49;;;;;;;22.08;19.63;;;;;;;22.37;61.11;101213.81;4992306;28;20042;-73
2021/07/13 09:29:40;;;;;;;22.30;19.95;;;;;;;22.37;61.16;101213.81;4995893;28;20101;-72
2021/07/13 09:32:24;;;;;;;22.02;19.70;;;;;;;22.39;61.02;101219.94;5013627;28;20053;-72
2021/07/13 09:34:53;;;;;;;20.92;18.83;;;;;;;22.36;61.02;101210.31;5013592;28;20029;-72
2021/07/13 09:37:27;;;;;;;23.27;20.85;;;;;;;22.38;61.09;101219.06;4995794;28;20026;-73
2021/07/13 09:39:58;;;;;;;20.90;18.63;;;;;;;22.39;61.06;101217.31;5013666;28;20464;-72
2021/07/13 09:42:26;;;;;;;22.40;20.05;;;;;;;22.37;61.00;101216.47;5017346;28;20104;-72
2021/07/13 09:44:52;;;;;;;20.63;18.42;;;;;;;22.37;61.02;101213.81;5000082;28;20441;-72
2021/07/13 09:47:30;;;;;;;22.58;20.38;;;;;;;22.43;61.02;101219.03;5017360;28;20053;-73
2021/07/13 09:49:56;;;;;;;20.73;18.63;;;;;;;22.45;60.96;101212.84;5017360;28;20053;-72
2021/07/13 09:52:25;;;;;;;20.25;18.20;;;;;;;22.44;60.74;101208.47;4999452;28;20480;-72
2021/07/13 09:54:51;;;;;;;22.80;20.52;;;;;;;22.44;60.88;101208.47;4983366;28;20030;-72
2021/07/13 09:57:19;;;;;;;21.88;19.60;;;;;;;22.46;60.95;101214.53;4983170;28;20144;-72
2021/07/13 09:59:48;;;;;;;20.00;17.58;;;;;;;22.44;60.96;101207.59;5016988;28;20357;-72
2021/07/13 10:02:16;;;;;;;20.58;18.50;;;;;;;22.46;60.94;101209.28;4999266;28;20083;-72
2021/07/13 10:04:41;;;;;;;21.30;19.30;;;;;;;22.49;61.06;101212.75;4999198;28;20480;-72
2021/07/13 10:07:17;;;;;;;22.13;19.83;;;;;;;22.48;61.18;101208.38;4983101;28;20030;-72
2021/07/13 10:09:47;;;;;;;19.52;17.42;;;;;;;22.50;60.80;101203.97;5016909;28;20137;-72
2021/07/13 10:12:15;;;;;;;21.38;19.10;;;;;;;22.53;60.96;101203.94;5017071;28;20026;-72
2021/07/13 10:14:47;;;;;;;25.63;20.27;;;;;;;22.50;60.98;101215.38;5016826;28;20021;-72
2021/07/13 10:17:14;;;;;;;19.33;17.38;;;;;;;22.54;61.13;101210.94;5016880;28;20026;-72
2021/07/13 10:19:46;;;;;;;19.17;16.90;;;;;;;22.52;60.97;101212.72;5018873;28;20034;-72
2021/07/13 10:22:13;;;;;;;20.48;18.38;;;;;;;22.55;60.94;101220.59;5019510;28;20030;-72
2021/07/13 10:24:41;;;;;;;22.52;19.65;;;;;;;22.52;61.21;101215.34;5018666;28;20054;-72
2021/07/13 10:27:12;;;;;;;21.02;17.25;;;;;;;22.53;61.15;101225.00;5000188;28;20026;-73
2021/07/13 10:29:38;;;;;;;20.92;18.80;;;;;;;22.53;61.17;101225.00;5017246;28;20018;-72
2021/07/13 10:32:07;;;;;;;18.08;16.15;;;;;;;22.53;61.07;101227.66;4999551;28;20083;-72
2021/07/13 10:34:53;;;;;;;19.83;17.85;;;;;;;22.52;61.17;101228.53;5016642;28;20028;-72
2021/07/13 10:37:29;;;;;;;19.20;17.30;;;;;;;22.53;61.34;101230.28;4998721;28;20124;-72
2021/07/13 10:39:59;;;;;;;19.00;17.10;;;;;;;22.50;61.11;101227.69;4998789;28;20033;-72
2021/07/13 10:42:40;;;;;;;17.90;16.08;;;;;;;22.52;60.93;101225.91;5016455;28;20025;-72
2021/07/13 10:45:18;;;;;;;19.65;17.60;;;;;;;22.52;60.95;101224.13;5016221;28;20032;-73
2021/07/13 10:48:10;;;;;;;20.20;18.20;;;;;;;22.53;60.90;101225.88;5016433;28;20025;-72
2021/07/13 10:50:38;;;;;;;18.73;16.75;;;;;;;22.52;60.85;101226.78;5015976;28;20029;-73
2021/07/13 10:53:25;;;;;;;20.42;18.23;;;;;;;22.48;60.92;101218.94;4997722;28;20358;-72
2021/07/13 10:55:54;;;;;;;18.30;16.42;;;;;;;22.51;60.96;101234.69;5015996;28;20030;-72
2021/07/13 10:58:21;;;;;;;18.90;16.63;;;;;;;22.52;61.03;101228.53;5015796;28;20030;-72
2021/07/13 11:00:58;;;;;;;18.73;16.92;;;;;;;22.52;61.12;101239.06;5015736;28;20026;-71
2021/07/13 11:03:32;;;;;;;19.40;17.35;;;;;;;22.53;60.70;101236.41;5016018;28;20052;-72
2021/07/13 11:05:58;;;;;;;18.63;16.25;;;;;;;22.56;60.70;101240.78;5015878;28;20026;-72
2021/07/13 11:08:38;;;;;;;21.55;17.10;;;;;;;22.56;60.58;101240.78;5015626;28;20362;-74
2021/07/13 11:11:07;;;;;;;19.35;17.40;;;;;;;22.55;60.44;101241.69;4998462;28;20060;-73
2021/07/13 11:13:33;;;;;;;17.15;15.45;;;;;;;22.55;60.78;101250.47;5016094;28;20415;-72